Time;durP1;ratioP1;P1;durP2;ratioP2;P2;SDS_P1;SDS_P2;PMS_P1;PMS_P2;Temp;Humidity;BMP_temperature;BMP_pressure;BME280_temperature;BME280_humidity;BME280_pressure;Samples;Min_cycle;Max_cycle;Signal;HPM_P1;HPM_P2
2023/04/26 00:00:24;;;;;;;18.42;7.07;;;1.10;99.90;;;;;;5042275;28;20135;-85
2023/04/26 00:02:50;;;;;;;18.38;8.63;;;0.90;99.90;;;;;;5033005;28;20388;-86
2023/04/26 00:05:18;;;;;;;14.35;7.43;;;0.80;99.90;;;;;;5012927;28;20814;-86
2023/04/26 00:07:43;;;;;;;22.55;8.27;;;0.80;99.90;;;;;;5016376;28;20048;-86
2023/04/26 00:10:10;;;;;;;22.85;7.65;;;0.70;99.90;;;;;;5033333;28;20477;-86
2023/04/26 00:12:36;;;;;;;19.27;8.68;;;0.70;99.90;;;;;;5032444;28;20029;-86
2023/04/26 00:15:02;;;;;;;14.05;7.20;;;0.70;99.90;;;;;;5032310;28;20034;-86
2023/04/26 00:17:28;;;;;;;12.77;7.68;;;0.70;99.90;;;;;;5022829;28;20493;-86
2023/04/26 00:20:06;;;;;;;14.18;7.55;;;0.60;99.90;;;;;;5048860;28;20127;-86
2023/04/26 00:22:32;;;;;;;16.55;7.97;;;0.40;99.90;;;;;;5023390;28;20022;-86
2023/04/26 00:24:58;;;;;;;21.33;8.02;;;0.30;99.90;;;;;;5031205;28;20033;-86
2023/04/26 00:27:23;;;;;;;18.85;7.60;;;0.20;99.90;;;;;;5016461;28;20025;-86
2023/04/26 00:29:49;;;;;;;20.27;7.72;;;0.20;99.90;;;;;;5043784;28;20033;-86
2023/04/26 00:32:14;;;;;;;17.73;8.00;;;0.20;99.90;;;;;;5019464;28;20041;-85
2023/04/26 00:34:40;;;;;;;14.38;7.50;;;0.30;99.90;;;;;;5013072;28;20030;-85
2023/04/26 00:37:06;;;;;;;19.55;8.50;;;0.40;99.90;;;;;;5021579;28;20042;-85
2023/04/26 00:39:33;;;;;;;15.65;8.35;;;0.40;99.90;;;;;;5019382;28;20083;-85
2023/04/26 00:41:59;;;;;;;20.15;7.80;;;0.40;99.90;;;;;;5034683;28;20025;-85
2023/04/26 00:44:25;;;;;;;16.02;8.40;;;0.40;99.90;;;;;;5028075;28;20021;-86
2023/04/26 00:46:52;;;;;;;22.52;7.95;;;0.30;99.90;;;;;;5019637;28;20068;-86
2023/04/26 00:49:22;;;;;;;17.23;8.07;;;0.30;99.90;;;;;;5029540;28;20030;-86
2023/04/26 00:51:50;;;;;;;17.75;8.02;;;0.30;99.90;;;;;;5048608;28;20043;-86
2023/04/26 00:54:18;;;;;;;21.45;7.68;;;0.30;99.90;;;;;;5028847;28;20026;-85
2023/04/26 00:56:44;;;;;;;14.68;7.38;;;0.40;99.90;;;;;;5020958;28;20025;-86
2023/04/26 00:59:10;;;;;;;17.10;7.55;;;0.30;99.90;;;;;;5029582;28;20397;-86
2023/04/26 01:01:36;;;;;;;22.08;7.72;;;0.30;99.90;;;;;;5021560;28;20032;-86
2023/04/26 01:04:03;;;;;;;15.95;7.28;;;0.30;99.90;;;;;;5029825;28;20029;-85
2023/04/26 01:06:37;;;;;;;14.02;7.90;;;0.30;99.90;;;;;;5023037;28;20040;-85
2023/04/26 01:09:09;;;;;;;20.50;7.85;;;0.40;99.90;;;;;;5030871;28;20021;-86
2023/04/26 01:11:36;;;;;;;21.67;8.00;;;0.40;99.90;;;;;;5016141;28;20091;-86
2023/04/26 01:14:02;;;;;;;15.80;7.50;;;0.40;99.90;;;;;;5047623;28;20040;-86
2023/04/26 01:16:29;;;;;;;17.50;8.02;;;0.30;99.90;;;;;;5047576;28;20072;-86
2023/04/26 01:18:55;;;;;;;12.00;7.03;;;0.20;99.90;;;;;;5047503;28;20060;-86
2023/04/26 01:21:24;;;;;;;14.90;7.05;;;0.10;99.90;;;;;;5028313;28;20116;-85
2023/04/26 01:23:50;;;;;;;17.55;6.97;;;0.10;99.90;;;;;;5015293;28;20041;-86
2023/04/26 01:26:17;;;;;;;21.60;7.25;;;0.00;99.90;;;;;;5048427;28;20033;-86
2023/04/26 01:28:43;;;;;;;15.70;7.43;;;0.00;99.90;;;;;;5030010;28;20058;-86
2023/04/26 01:31:09;;;;;;;24.90;9.10;;;0.00;99.90;;;;;;5048288;28;20101;-86
2023/04/26 01:33:35;;;;;;;22.38;9.27;;;0.10;99.90;;;;;;5028984;28;20092;-86
2023/04/26 01:36:00;;;;;;;13.50;7.15;;;0.10;99.90;;;;;;5027435;28;20471;-86
2023/04/26 01:38:28;;;;;;;14.10;7.32;;;0.20;99.90;;;;;;5031511;28;20040;-86
2023/04/26 01:40:54;;;;;;;18.40;7.63;;;0.40;99.90;;;;;;5016817;28;20044;-86
2023/04/26 01:43:21;;;;;;;19.67;8.48;;;0.50;99.90;;;;;;5023081;28;20079;-85
2023/04/26 01:45:48;;;;;;;15.38;7.05;;;0.60;99.90;;;;;;5018587;28;20064;-86
2023/04/26 01:48:28;;;;;;;18.02;6.88;;;0.60;99.90;;;;;;5048155;28;20112;-86
2023/04/26 01:50:54;;;;;;;11.77;6.68;;;0.50;99.90;;;;;;5031425;28;20060;-85
2023/04/26 01:53:20;;;;;;;16.20;6.53;;;0.40;99.90;;;;;;5019276;28;20042;-86
2023/04/26 01:55:46;;;;;;;12.38;6.90;;;0.40;99.90;;;;;;5012709;28;20034;-86
2023/04/26 01:58:11;;;;;;;20.58;7.00;;;0.30;99.90;;;;;;5023563;28;20026;-85
2023/04/26 02:00:37;;;;;;;15.65;7.45;;;0.20;99.90;;;;;;5028353;28;20033;-86
2023/04/26 02:03:03;;;;;;;19.88;7.43;;;0.10;99.90;;;;;;5024242;28;20485;-85
2023/04/26 02:05:29;;;;;;;16.38;6.55;;;0.00;99.90;;;;;;5026625;28;20132;-86
2023/04/26 02:07:55;;;;;;;16.92;7.63;;;-0.10;99.90;;;;;;5047466;28;20343;-86
2023/04/26 02:10:21;;;;;;;14.65;6.75;;;-0.20;99.90;;;;;;5029980;28;20036;-85
2023/04/26 02:12:46;;;;;;;16.92;7.97;;;-0.20;99.90;;;;;;5021312;28;20071;-85
2023/04/26 02:15:13;;;;;;;22.85;7.78;;;-0.20;99.90;;;;;;5030137;28;20416;-86
2023/04/26 02:17:38;;;;;;;14.52;6.65;;;-0.20;99.90;;;;;;5022184;28;20129;-86
2023/04/26 02:20:06;;;;;;;19.63;7.35;;;-0.30;99.90;;;;;;5029052;28;20034;-86
2023/04/26 02:22:31;;;;;;;14.85;7.05;;;-0.50;99.90;;;;;;5032689;28;20025;-85
2023/04/26 02:24:57;;;;;;;18.85;7.80;;;-0.60;99.90;;;;;;5033319;28;20480;-86
2023/04/26 02:27:26;;;;;;;30.05;9.55;;;-0.60;99.90;;;;;;5050916;28;20053;-86
2023/04/26 02:29:53;;;;;;;22.83;7.95;;;-0.50;99.90;;;;;;5030878;28;20072;-86
2023/04/26 02:32:19;;;;;;;16.80;9.15;;;-0.50;99.90;;;;;;5051107;28;20416;-86
2023/04/26 02:34:45;;;;;;;22.50;8.95;;;-0.40;99.90;;;;;;5031119;28;20037;-86
2023/04/26 02:37:10;;;;;;;19.05;8.50;;;-0.30;99.90;;;;;;5026779;28;20093;-85
2023/04/26 02:39:37;;;;;;;22.77;8.45;;;-0.20;99.90;;;;;;5031414;28;20041;-85
2023/04/26 02:42:02;;;;;;;18.75;7.85;;;-0.20;99.90;;;;;;5051788;28;20026;-86
2023/04/26 02:44:32;;;;;;;24.00;8.23;;;-0.30;99.90;;;;;;5033671;28;20026;-86
2023/04/26 02:46:58;;;;;;;25.02;9.85;;;-0.30;99.90;;;;;;5024323;28;20030;-86
2023/04/26 02:49:23;;;;;;;17.92;8.00;;;-0.30;99.90;;;;;;5022434;28;20108;-86
2023/04/26 02:51:49;;;;;;;15.07;7.90;;;-0.40;99.90;;;;;;5025266;28;20025;-86
2023/04/26 02:54:16;;;;;;;17.88;8.10;;;-0.50;99.90;;;;;;5049857;28;20037;-86
2023/04/26 02:56:41;;;;;;;14.85;8.05;;;-0.50;99.90;;;;;;5050369;28;20567;-86
2023/04/26 02:59:07;;;;;;;20.55;9.20;;;-0.40;99.90;;;;;;5051091;28;20041;-86
2023/04/26 03:01:33;;;;;;;26.20;9.27;;;-0.30;99.90;;;;;;5014657;28;20524;-86
2023/04/26 03:03:59;;;;;;;17.65;8.45;;;-0.30;99.90;;;;;;5034127;28;20109;-86
2023/04/26 03:06:24;;;;;;;17.88;8.98;;;-0.30;99.90;;;;;;5022761;28;20026;-85
2023/04/26 03:08:50;;;;;;;19.40;7.97;;;-0.40;99.90;;;;;;5047395;28;20070;-85
2023/04/26 03:11:19;;;;;;;17.05;8.40;;;-0.40;99.90;;;;;;5027170;28;20060;-85
2023/04/26 03:13:44;;;;;;;25.70;8.88;;;-0.50;99.90;;;;;;5031303;28;20086;-86
2023/04/26 03:16:10;;;;;;;20.75;8.52;;;-0.50;99.90;;;;;;5027724;28;20034;-85
2023/04/26 03:18:36;;;;;;;17.67;8.00;;;-0.60;99.90;;;;;;5030534;28;20029;-86
2023/04/26 03:21:02;;;;;;;17.10;8.13;;;-0.60;99.90;;;;;;5009619;28;20030;-85
2023/04/26 03:23:29;;;;;;;13.93;8.10;;;-0.60;99.90;;;;;;5034256;28;20051;-86
2023/04/26 03:25:55;;;;;;;26.08;8.68;;;-0.70;99.90;;;;;;5017481;28;20033;-85
2023/04/26 03:28:21;;;;;;;21.27;8.52;;;-0.80;99.90;;;;;;5049966;28;20779;-85
2023/04/26 03:30:48;;;;;;;20.90;9.27;;;-0.80;99.90;;;;;;5015883;28;20030;-85
2023/04/26 03:33:15;;;;;;;22.20;8.48;;;-0.80;99.90;;;;;;5029983;28;20503;-85
2023/04/26 03:35:42;;;;;;;17.15;8.18;;;-0.90;99.90;;;;;;5012993;28;20037;-85
2023/04/26 03:38:08;;;;;;;21.17;8.73;;;-0.90;99.90;;;;;;5021945;28;20033;-85
2023/04/26 03:40:33;;;;;;;20.23;8.75;;;-0.90;99.90;;;;;;5013841;28;20026;-85
2023/04/26 03:42:59;;;;;;;17.60;9.00;;;-0.90;99.90;;;;;;5031950;28;20029;-85
2023/04/26 03:45:25;;;;;;;20.58;8.85;;;-1.00;99.90;;;;;;5026278;28;20026;-85
2023/04/26 03:47:51;;;;;;;25.30;9.15;;;-1.00;99.90;;;;;;5015242;28;20026;-85
2023/04/26 03:50:17;;;;;;;37.63;17.13;;;-1.00;99.90;;;;;;5030022;28;20124;-85
2023/04/26 03:52:44;;;;;;;56.92;28.77;;;-1.00;99.90;;;;;;5031549;28;20029;-86
2023/04/26 03:55:10;;;;;;;40.92;18.30;;;-1.00;99.90;;;;;;5028076;28;20048;-85
2023/04/26 03:57:37;;;;;;;40.80;18.70;;;-0.90;99.90;;;;;;5030720;28;20025;-86
2023/04/26 04:00:13;;;;;;;27.83;12.20;;;-0.90;99.90;;;;;;5029584;28;20026;-85
2023/04/26 04:02:43;;;;;;;27.55;11.07;;;-0.80;99.90;;;;;;5029695;28;20104;-85
2023/04/26 04:05:14;;;;;;;26.45;11.90;;;-0.80;99.90;;;;;;5049335;28;20014;-85
2023/04/26 04:07:41;;;;;;;25.50;11.50;;;-0.80;99.90;;;;;;5024065;28;20094;-85
2023/04/26 04:10:09;;;;;;;29.75;11.50;;;-0.80;99.90;;;;;;5049149;28;20725;-85
2023/04/26 04:12:35;;;;;;;34.13;12.82;;;-0.80;99.90;;;;;;5024016;28;20033;-87
2023/04/26 04:15:02;;;;;;;26.33;11.80;;;-0.70;99.90;;;;;;5040158;28;20147;-88
2023/04/26 04:17:28;;;;;;;24.30;12.30;;;-0.70;99.90;;;;;;5033989;28;20032;-88
2023/04/26 04:19:54;;;;;;;26.45;11.13;;;-0.70;99.90;;;;;;5013681;28;20142;-88
2023/04/26 04:22:20;;;;;;;28.77;12.00;;;-0.70;99.90;;;;;;5029303;28;20034;-88
2023/04/26 04:24:46;;;;;;;26.83;12.10;;;-0.80;99.90;;;;;;5027472;28;20022;-88
2023/04/26 04:27:12;;;;;;;31.45;12.43;;;-0.80;99.90;;;;;;5022238;28;20026;-87
2023/04/26 04:29:40;;;;;;;24.38;12.15;;;-0.80;99.90;;;;;;5042803;28;20053;-88
2023/04/26 04:32:07;;;;;;;27.90;12.20;;;-0.80;99.90;;;;;;5016685;28;20456;-87
2023/04/26 04:34:35;;;;;;;24.30;12.30;;;-0.80;99.90;;;;;;5029543;28;20454;-88
2023/04/26 04:37:01;;;;;;;25.25;12.07;;;-0.80;99.90;;;;;;5021975;28;20392;-88
2023/04/26 04:39:27;;;;;;;21.92;11.13;;;-0.70;99.90;;;;;;5031032;28;20120;-87
2023/04/26 04:41:53;;;;;;;33.38;13.13;;;-0.70;99.90;;;;;;5016407;28;20026;-87
2023/04/26 04:44:20;;;;;;;27.48;12.77;;;-0.70;99.90;;;;;;5049089;28;20052;-87
2023/04/26 04:46:46;;;;;;;34.17;13.07;;;-0.70;99.90;;;;;;5023023;28;20104;-87
2023/04/26 04:49:12;;;;;;;35.45;13.05;;;-0.60;99.90;;;;;;5048130;28;20436;-88
2023/04/26 04:51:38;;;;;;;24.75;12.85;;;-0.60;99.90;;;;;;5018338;28;20034;-88
2023/04/26 04:54:14;;;;;;;29.23;14.18;;;-0.50;99.90;;;;;;5044110;28;20171;-87
2023/04/26 04:56:41;;;;;;;44.55;18.30;;;-0.50;99.90;;;;;;5029319;28;20026;-88
2023/04/26 04:59:07;;;;;;;41.35;17.58;;;-0.40;99.90;;;;;;5028062;28;20061;-88
2023/04/26 05:01:35;;;;;;;49.72;18.98;;;-0.40;99.90;;;;;;5012561;28;20026;-88
2023/04/26 05:04:06;;;;;;;52.45;20.67;;;-0.30;99.90;;;;;;5031403;28;20473;-88
2023/04/26 05:06:32;;;;;;;58.78;22.08;;;-0.20;99.90;;;;;;5023844;28;20389;-88
2023/04/26 05:09:20;;;;;;;51.08;21.98;;;-0.20;99.90;;;;;;5030366;28;20029;-88
2023/04/26 05:11:46;;;;;;;58.38;21.42;;;-0.10;99.90;;;;;;5012660;28;20036;-88
2023/04/26 05:14:12;;;;;;;44.20;19.63;;;0.00;99.90;;;;;;5012176;28;20029;-88
2023/04/26 05:16:38;;;;;;;36.05;17.50;;;0.10;99.90;;;;;;5024271;28;20069;-87
2023/04/26 05:19:04;;;;;;;38.25;16.17;;;0.20;99.90;;;;;;5031282;28;20060;-88
2023/04/26 05:21:31;;;;;;;33.50;16.88;;;0.30;99.90;;;;;;5026726;28;20029;-88
2023/04/26 05:23:56;;;;;;;29.98;15.00;;;0.50;99.90;;;;;;5015971;28;20074;-88
2023/04/26 05:26:22;;;;;;;36.10;15.85;;;0.50;99.90;;;;;;5048721;28;20116;-87
2023/04/26 05:28:57;;;;;;;31.83;15.25;;;0.60;99.90;;;;;;5038277;28;20030;-87
2023/04/26 05:31:37;;;;;;;32.08;16.02;;;0.70;99.90;;;;;;5031951;28;20025;-88
2023/04/26 05:34:11;;;;;;;34.13;14.88;;;0.80;99.90;;;;;;5039705;28;20370;-88
2023/04/26 05:36:38;;;;;;;31.70;15.55;;;1.00;99.90;;;;;;5028980;28;20037;-88
2023/04/26 05:39:05;;;;;;;56.92;18.27;;;1.10;99.90;;;;;;5032034;28;20037;-88
2023/04/26 05:41:31;;;;;;;26.77;13.35;;;1.20;99.90;;;;;;5028649;28;20034;-88
2023/04/26 05:43:56;;;;;;;44.08;14.95;;;1.40;99.90;;;;;;5027940;28;20105;-88
2023/04/26 05:46:22;;;;;;;31.92;15.15;;;1.50;99.90;;;;;;5022240;28;20050;-88
2023/04/26 05:48:48;;;;;;;32.53;15.48;;;1.60;99.90;;;;;;5038301;28;20026;-88
2023/04/26 05:51:15;;;;;;;34.72;16.15;;;1.70;99.90;;;;;;5034498;28;20104;-88
2023/04/26 05:53:41;;;;;;;26.95;16.15;;;1.80;99.90;;;;;;5024871;28;20081;-88
2023/04/26 05:56:07;;;;;;;31.35;14.25;;;1.90;99.90;;;;;;5009525;28;20041;-87
2023/04/26 05:58:33;;;;;;;31.02;13.63;;;2.00;99.90;;;;;;5027927;28;20029;-88
2023/04/26 06:01:00;;;;;;;39.38;15.23;;;2.10;99.90;;;;;;5016750;28;20084;-88
2023/04/26 06:03:26;;;;;;;32.33;15.32;;;2.30;99.90;;;;;;5009420;28;20034;-88
2023/04/26 06:05:52;;;;;;;42.00;17.67;;;2.40;99.90;;;;;;5018431;28;20033;-88
2023/04/26 06:08:20;;;;;;;32.47;15.88;;;2.50;99.90;;;;;;5022974;28;20033;-88
2023/04/26 06:10:48;;;;;;;24.15;11.77;;;2.60;99.90;;;;;;5027837;28;20312;-88
2023/04/26 06:13:14;;;;;;;28.98;11.75;;;2.80;99.90;;;;;;5032929;28;20029;-89
2023/04/26 06:15:40;;;;;;;21.10;9.48;;;2.90;99.90;;;;;;5021065;28;20386;-88
2023/04/26 06:18:06;;;;;;;18.23;9.07;;;3.20;99.90;;;;;;5029968;28;20022;-88
2023/04/26 06:20:32;;;;;;;21.80;8.75;;;3.40;99.90;;;;;;5034460;28;20025;-89
2023/04/26 06:22:58;;;;;;;16.38;8.27;;;3.50;99.90;;;;;;5031369;28;20034;-89
2023/04/26 06:25:24;;;;;;;19.67;7.95;;;3.60;99.90;;;;;;5025108;28;20180;-89
2023/04/26 06:27:50;;;;;;;15.25;9.70;;;3.70;99.90;;;;;;5018501;28;20109;-88
2023/04/26 06:30:16;;;;;;;16.52;8.38;;;3.80;99.90;;;;;;5033750;28;20029;-89
2023/04/26 06:32:45;;;;;;;18.80;9.77;;;3.90;99.90;;;;;;5040365;28;20029;-88
2023/04/26 06:35:11;;;;;;;28.88;9.18;;;3.90;99.90;;;;;;5021146;28;20694;-89
2023/04/26 06:37:38;;;;;;;14.93;7.80;;;4.00;99.90;;;;;;5024584;28;20535;-88
2023/04/26 06:40:07;;;;;;;20.77;6.32;;;4.10;99.90;;;;;;5034191;28;20408;-89
2023/04/26 06:42:33;;;;;;;15.55;6.15;;;4.20;99.90;;;;;;5035139;28;20846;-88
2023/04/26 06:45:25;;;;;;;15.63;6.53;;;4.30;99.90;;;;;;5010417;28;20461;-88
2023/04/26 06:47:55;;;;;;;16.15;6.78;;;4.40;99.90;;;;;;5025129;28;20076;-88
2023/04/26 06:50:23;;;;;;;18.63;7.13;;;4.50;99.90;;;;;;5027488;28;20416;-89
2023/04/26 06:52:49;;;;;;;19.45;8.13;;;4.60;99.90;;;;;;5026287;28;20036;-88
2023/04/26 06:55:15;;;;;;;15.15;6.57;;;4.80;99.90;;;;;;5029448;28;20065;-88
2023/04/26 06:57:44;;;;;;;16.75;5.95;;;5.00;99.90;;;;;;5030697;28;20083;-89
2023/04/26 07:00:10;;;;;;;18.90;6.55;;;5.20;99.90;;;;;;5026397;28;20037;-88
2023/04/26 07:02:36;;;;;;;10.82;4.70;;;5.30;99.90;;;;;;5022164;28;20476;-88
2023/04/26 07:05:01;;;;;;;12.10;5.57;;;5.40;99.90;;;;;;5023629;28;20021;-89
2023/04/26 07:07:27;;;;;;;12.40;5.75;;;5.40;99.90;;;;;;5013042;28;20497;-88
2023/04/26 07:09:53;;;;;;;18.60;5.85;;;5.40;99.90;;;;;;5040327;28;20116;-88
2023/04/26 07:12:19;;;;;;;15.00;5.90;;;5.40;99.90;;;;;;5027693;28;20741;-88
2023/04/26 07:14:45;;;;;;;11.43;5.80;;;5.50;99.90;;;;;;5026612;28;20461;-88
2023/04/26 07:17:11;;;;;;;13.73;4.90;;;5.50;99.90;;;;;;5016343;28;20047;-88
2023/04/26 07:19:37;;;;;;;16.83;5.47;;;5.70;99.90;;;;;;5011475;28;20034;-88
2023/04/26 07:22:03;;;;;;;12.73;5.10;;;5.90;99.90;;;;;;5028569;28;20116;-89
2023/04/26 07:24:29;;;;;;;12.80;5.75;;;6.20;99.90;;;;;;5024906;28;20483;-89
2023/04/26 07:26:55;;;;;;;9.50;4.70;;;6.40;99.90;;;;;;5041422;28;20021;-89
2023/04/26 07:29:22;;;;;;;16.88;5.40;;;6.50;99.90;;;;;;5024356;28;20075;-88
2023/04/26 07:31:48;;;;;;;11.10;5.20;;;6.50;99.90;;;;;;5038297;28;20037;-88
2023/04/26 07:34:14;;;;;;;9.38;4.63;;;6.60;99.90;;;;;;5026415;28;20029;-89
2023/04/26 07:36:40;;;;;;;14.52;5.47;;;6.80;99.90;;;;;;5019265;28;20507;-88
2023/04/26 07:39:08;;;;;;;9.35;4.70;;;6.90;99.90;;;;;;5048149;28;20044;-88
2023/04/26 07:41:34;;;;;;;11.07;4.90;;;7.20;99.90;;;;;;5038304;28;20080;-90
2023/04/26 07:44:00;;;;;;;16.15;5.40;;;7.40;99.90;;;;;;5029862;28;20026;-90
2023/04/26 07:46:26;;;;;;;8.70;4.82;;;7.40;99.90;;;;;;5017021;28;20029;-90
2023/04/26 07:48:52;;;;;;;15.73;4.55;;;7.40;99.90;;;;;;5029795;28;20026;-90
2023/04/26 07:51:18;;;;;;;13.13;4.70;;;7.50;99.90;;;;;;5031910;28;20393;-90
2023/04/26 07:53:43;;;;;;;10.50;4.00;;;7.50;99.90;;;;;;5030136;28;20033;-90
2023/04/26 07:56:09;;;;;;;11.05;3.72;;;7.70;99.90;;;;;;5024730;28;20045;-90
2023/04/26 07:58:38;;;;;;;10.40;3.67;;;7.80;99.90;;;;;;5010359;28;20044;-89
2023/04/26 08:01:04;;;;;;;9.55;3.97;;;7.90;99.90;;;;;;5038409;28;20071;-90
2023/04/26 08:03:31;;;;;;;12.07;3.63;;;8.00;99.90;;;;;;5016656;28;20392;-90
2023/04/26 08:05:57;;;;;;;13.45;4.80;;;8.00;99.90;;;;;;5016836;28;20036;-90
2023/04/26 08:08:25;;;;;;;9.32;4.40;;;7.80;99.90;;;;;;5028795;28;20026;-88
2023/04/26 08:10:52;;;;;;;12.77;3.83;;;7.70;99.90;;;;;;5031670;28;20052;-90
2023/04/26 08:13:18;;;;;;;5.80;3.38;;;7.50;99.90;;;;;;5022315;28;20060;-89
2023/04/26 08:15:43;;;;;;;9.40;4.05;;;7.50;99.90;;;;;;5028869;28;20404;-89
2023/04/26 08:18:09;;;;;;;17.63;3.80;;;7.40;99.90;;;;;;5031146;28;20042;-89
2023/04/26 08:20:35;;;;;;;7.75;2.95;;;7.60;99.90;;;;;;5031395;28;20030;-90
2023/04/26 08:23:01;;;;;;;5.72;2.75;;;7.80;99.90;;;;;;5030889;28;20116;-90
2023/04/26 08:25:27;;;;;;;16.60;3.13;;;7.70;99.90;;;;;;5030222;28;20022;-90
2023/04/26 08:27:53;;;;;;;15.10;2.90;;;7.80;98.90;;;;;;5030016;28;20022;-90
2023/04/26 08:30:18;;;;;;;7.70;2.45;;;7.80;97.00;;;;;;5033449;28;20037;-90
2023/04/26 08:32:45;;;;;;;13.98;3.80;;;8.00;97.60;;;;;;5027999;28;20527;-91
2023/04/26 08:35:11;;;;;;;7.65;3.60;;;7.90;99.90;;;;;;5032409;28;20449;-90
2023/04/26 08:37:36;;;;;;;15.13;4.35;;;8.00;99.90;;;;;;5028857;28;20071;-90
2023/04/26 08:40:09;;;;;;;6.93;3.03;;;8.30;99.90;;;;;;5033041;28;20112;-90
2023/04/26 08:42:40;;;;;;;11.10;3.80;;;8.40;99.90;;;;;;5029339;28;20117;-90
2023/04/26 08:45:07;;;;;;;10.43;4.07;;;8.60;99.90;;;;;;5040318;28;20076;-90
2023/04/26 08:47:49;;;;;;;7.13;3.42;;;9.30;99.90;;;;;;5032619;28;20048;-91
2023/04/26 08:50:15;;;;;;;;;;;10.10;97.70;;;;;;5020291;28;20433;-90
2023/04/26 08:52:42;;;;;;;8.55;3.78;;;11.20;95.00;;;;;;5033714;28;20015;-90
2023/04/26 08:55:15;;;;;;;9.30;2.80;;;12.30;91.90;;;;;;5022865;28;20029;-92
2023/04/26 08:57:42;;;;;;;9.23;3.10;;;13.50;88.30;;;;;;5015751;28;20088;-91
2023/04/26 09:00:12;;;;;;;9.50;2.85;;;13.20;83.10;;;;;;5030154;28;20030;-91
2023/04/26 09:02:46;;;;;;;9.63;3.05;;;13.60;82.00;;;;;;5029071;28;20033;-90
2023/04/26 09:05:11;;;;;;;9.32;3.08;;;13.10;78.90;;;;;;5035199;28;20029;-90
2023/04/26 09:07:45;;;;;;;5.95;2.50;;;12.70;78.70;;;;;;5030265;28;20519;-90
2023/04/26 09:10:12;;;;;;;6.75;3.42;;;14.30;77.60;;;;;;5030042;28;20026;-91
2023/04/26 09:12:38;;;;;;;9.65;3.08;;;15.90;71.00;;;;;;5030678;28;20029;-89
2023/04/26 09:15:09;;;;;;;11.23;3.38;;;14.40;69.80;;;;;;5021454;28;20033;-88
2023/04/26 09:17:40;;;;;;;8.52;3.40;;;12.70;75.50;;;;;;5022744;28;20033;-89
2023/04/26 09:20:22;;;;;;;13.07;2.88;;;11.80;75.40;;;;;;5016953;28;20464;-89
2023/04/26 09:22:52;;;;;;;11.65;3.83;;;11.40;78.50;;;;;;5025690;28;20030;-89
2023/04/26 09:25:30;;;;;;;6.65;2.90;;;11.60;79.50;;;;;;5012720;28;20461;-89
2023/04/26 09:27:56;;;;;;;5.13;2.88;;;12.30;80.50;;;;;;5020861;28;20030;-88
2023/04/26 09:30:23;;;;;;;11.25;4.22;;;12.60;75.90;;;;;;5028938;28;20157;-89
2023/04/26 09:33:05;;;;;;;10.50;4.30;;;12.30;76.00;;;;;;5021569;28;20041;-89
2023/04/26 09:35:35;;;;;;;10.05;3.00;;;12.00;75.50;;;;;;5034154;28;20033;-89
2023/04/26 09:38:11;;;;;;;5.60;2.83;;;12.80;74.30;;;;;;5028719;28;20120;-90
2023/04/26 09:40:43;;;;;;;16.52;5.93;;;13.20;71.40;;;;;;5028159;28;20034;-89
2023/04/26 09:43:12;;;;;;;;;;;13.30;72.70;;;;;;5035053;28;20037;-89
2023/04/26 09:45:49;;;;;;;10.95;3.22;;;13.80;73.80;;;;;;5033703;28;20376;-89
2023/04/26 09:48:25;;;;;;;6.50;3.03;;;14.40;69.10;;;;;;5030595;28;20132;-90
2023/04/26 09:51:03;;;;;;;9.63;3.28;;;14.90;67.90;;;;;;5026868;28;20026;-90
2023/04/26 09:53:37;;;;;;;6.18;2.92;;;14.80;68.20;;;;;;5005942;28;20416;-89
2023/04/26 09:56:12;;;;;;;11.27;3.00;;;14.80;66.30;;;;;;5013898;28;20481;-89
2023/04/26 09:58:56;;;;;;;6.70;2.75;;;14.30;65.30;;;;;;5032949;28;20422;-89
2023/04/26 10:01:27;;;;;;;12.02;3.20;;;14.30;70.00;;;;;;5017465;28;20068;-89
2023/04/26 10:03:54;;;;;;;27.67;7.45;;;13.50;67.80;;;;;;5025469;28;20017;-88
2023/04/26 10:06:20;;;;;;;10.85;3.05;;;13.10;71.10;;;;;;5016915;28;20152;-89
2023/04/26 10:09:08;;;;;;;6.78;2.72;;;12.90;70.80;;;;;;5035800;28;20597;-88
2023/04/26 10:11:38;;;;;;;9.02;2.65;;;12.80;71.80;;;;;;5027011;28;20436;-89
2023/04/26 10:14:05;;;;;;;9.40;3.00;;;12.40;73.80;;;;;;5025203;28;20492;-89
2023/04/26 10:16:34;;;;;;;9.82;3.35;;;12.80;73.80;;;;;;5031879;28;20042;-90
2023/04/26 10:19:00;;;;;;;5.60;2.50;;;13.80;75.30;;;;;;5030836;28;20500;-89
2023/04/26 10:21:34;;;;;;;7.97;3.00;;;14.10;72.70;;;;;;5024969;28;20053;-90
2023/04/26 10:24:03;;;;;;;6.25;2.30;;;13.20;71.90;;;;;;5034849;28;20022;-90
2023/04/26 10:26:50;;;;;;;5.32;2.35;;;13.20;71.30;;;;;;5017746;28;20409;-90
2023/04/26 10:29:18;;;;;;;9.88;2.70;;;13.40;71.60;;;;;;5024608;28;20030;-90
2023/04/26 10:32:00;;;;;;;6.68;2.70;;;13.30;73.60;;;;;;5019366;28;20024;-90
2023/04/26 10:34:33;;;;;;;9.73;3.13;;;12.80;73.60;;;;;;5024246;28;20030;-90
2023/04/26 10:37:14;;;;;;;6.72;2.83;;;12.90;72.60;;;;;;5031629;28;20109;-90
2023/04/26 10:39:47;;;;;;;8.30;2.55;;;13.00;76.10;;;;;;5018400;28;20038;-89
2023/04/26 10:42:31;;;;;;;9.57;3.40;;;13.30;74.00;;;;;;5028882;28;20025;-89
2023/04/26 10:45:27;;;;;;;6.88;2.65;;;12.80;74.50;;;;;;5031765;28;20022;-89
2023/04/26 10:48:30;;;;;;;7.07;2.97;;;12.70;73.60;;;;;;5013330;28;20022;-90
2023/04/26 10:51:21;;;;;;;10.48;2.60;;;13.00;74.70;;;;;;5019408;28;20029;-89
2023/04/26 10:53:50;;;;;;;10.88;2.63;;;14.20;76.10;;;;;;5027611;28;20034;-90
2023/04/26 10:56:22;;;;;;;9.07;2.58;;;14.90;70.30;;;;;;5035075;28;20025;-89
2023/04/26 10:59:06;;;;;;;6.47;2.35;;;15.40;70.40;;;;;;5030614;28;20096;-90
2023/04/26 11:01:32;;;;;;;7.85;2.97;;;15.70;66.10;;;;;;5012051;28;20044;-89
2023/04/26 11:03:57;;;;;;;6.55;2.30;;;15.10;65.10;;;;;;5033003;28;20022;-90
2023/04/26 11:06:25;;;;;;;4.68;2.28;;;15.30;64.00;;;;;;5024944;28;20021;-89
2023/04/26 11:08:52;;;;;;;10.25;2.42;;;15.20;67.20;;;;;;5022469;28;20048;-90
2023/04/26 11:11:19;;;;;;;9.85;2.83;;;15.30;66.10;;;;;;5025765;28;20033;-90
2023/04/26 11:13:46;;;;;;;6.68;2.60;;;15.70;65.40;;;;;;5035352;28;20091;-89
2023/04/26 11:16:16;;;;;;;4.43;2.10;;;15.20;64.60;;;;;;5019157;28;20057;-89
2023/04/26 11:18:44;;;;;;;6.20;2.25;;;14.80;65.80;;;;;;5031590;28;20036;-90
2023/04/26 11:21:14;;;;;;;11.38;3.10;;;14.50;65.80;;;;;;5015830;28;20057;-90
2023/04/26 11:23:40;;;;;;;10.02;3.22;;;14.20;65.80;;;;;;5031511;28;20500;-89
2023/04/26 11:26:10;;;;;;;6.68;3.67;;;14.00;70.60;;;;;;5015238;28;20029;-90
2023/04/26 11:28:37;;;;;;;12.48;3.25;;;13.60;73.10;;;;;;5014992;28;20028;-89
2023/04/26 11:31:05;;;;;;;8.30;3.60;;;12.90;74.20;;;;;;5027988;28;20032;-89
2023/04/26 11:33:33;;;;;;;7.88;3.42;;;12.30;78.10;;;;;;5018413;28;20068;-89
2023/04/26 11:35:59;;;;;;;10.43;3.30;;;12.00;78.20;;;;;;5031606;28;20038;-89
2023/04/26 11:38:26;;;;;;;7.10;3.08;;;11.80;81.10;;;;;;5018068;28;20033;-89
2023/04/26 11:41:02;;;;;;;14.20;2.88;;;11.90;80.50;;;;;;5029691;28;20034;-89
2023/04/26 11:43:34;;;;;;;8.95;3.08;;;12.20;77.20;;;;;;5034435;28;20032;-89
2023/04/26 11:46:00;;;;;;;17.30;3.60;;;12.50;75.20;;;;;;5016411;28;20378;-90
2023/04/26 11:48:28;;;;;;;7.63;2.78;;;12.20;75.20;;;;;;5023409;28;20026;-89
2023/04/26 11:50:56;;;;;;;5.28;3.47;;;12.20;74.20;;;;;;5034422;28;20049;-89
2023/04/26 11:53:24;;;;;;;7.68;3.45;;;12.20;77.30;;;;;;5034817;28;20365;-89
2023/04/26 11:55:51;;;;;;;10.82;4.22;;;12.40;79.90;;;;;;5032888;28;20124;-89
2023/04/26 11:58:17;;;;;;;15.27;3.75;;;12.70;79.60;;;;;;5026464;28;20035;-89
2023/04/26 12:01:00;;;;;;;9.25;3.88;;;12.40;77.50;;;;;;5032801;28;20644;-89
2023/04/26 12:03:36;;;;;;;7.78;3.70;;;12.10;79.40;;;;;;5018669;28;20033;-90
2023/04/26 12:06:02;;;;;;;12.30;3.25;;;12.50;79.50;;;;;;5030721;28;20030;-90
2023/04/26 12:08:31;;;;;;;10.82;3.97;;;12.80;76.90;;;;;;5033727;28;20094;-90
2023/04/26 12:11:01;;;;;;;5.78;3.22;;;13.10;75.30;;;;;;5030952;28;20036;-89
2023/04/26 12:13:31;;;;;;;11.77;4.68;;;13.10;78.70;;;;;;5017388;28;20037;-88
2023/04/26 12:15:57;;;;;;;16.95;4.00;;;12.40;77.90;;;;;;5019929;28;20504;-88
2023/04/26 12:18:51;;;;;;;13.80;3.85;;;11.90;79.70;;;;;;5103453;27;20124;-88
2023/04/26 12:21:17;;;;;;;9.80;3.60;;;12.00;80.10;;;;;;5071944;28;20063;-89
2023/04/26 12:23:46;;;;;;;8.70;3.58;;;12.10;77.50;;;;;;5081945;28;20031;-89
2023/04/26 12:26:12;;;;;;;7.47;3.85;;;11.80;78.60;;;;;;5090185;28;20020;-89
2023/04/26 12:28:39;;;;;;;9.48;3.35;;;12.50;82.10;;;;;;5081662;28;20111;-89
2023/04/26 12:31:06;;;;;;;9.43;3.72;;;13.20;76.70;;;;;;5073602;28;20020;-89
2023/04/26 12:33:32;;;;;;;8.00;3.13;;;13.80;77.10;;;;;;5073368;28;20043;-88
2023/04/26 12:36:11;;;;;;;8.75;3.20;;;14.10;76.30;;;;;;5083743;28;20380;-89
2023/04/26 12:38:39;;;;;;;11.30;3.85;;;14.00;71.70;;;;;;5066060;28;20467;-89
2023/04/26 12:41:08;;;;;;;9.95;3.67;;;13.60;74.00;;;;;;5072525;28;20051;-88
2023/04/26 12:43:34;;;;;;;12.50;3.88;;;13.40;74.50;;;;;;5062382;28;20029;-89
2023/04/26 12:46:00;;;;;;;8.50;3.30;;;12.80;75.30;;;;;;5066812;28;20029;-89
2023/04/26 12:48:27;;;;;;;11.07;3.45;;;12.60;79.10;;;;;;5072427;28;20031;-89